sensor_id;sensor_type;location;lat;lon;timestamp;temperature;humidity
792;DHT22;379;49.022;12.148;2023-05-15T00:01:56;9.80;99.90
792;DHT22;379;49.022;12.148;2023-05-15T00:04:22;9.70;99.90
792;DHT22;379;49.022;12.148;2023-05-15T00:06:49;9.70;99.90
792;DHT22;379;49.022;12.148;2023-05-15T00:09:17;9.80;99.90
792;DHT22;379;49.022;12.148;2023-05-15T00:11:45;9.80;99.90
792;DHT22;379;49.022;12.148;2023-05-15T00:14:12;9.80;99.90
792;DHT22;379;49.022;12.148;2023-05-15T00:16:39;9.70;99.90
792;DHT22;379;49.022;12.148;2023-05-15T00:19:06;9.70;99.90
792;DHT22;379;49.022;12.148;2023-05-15T00:21:33;9.70;99.90
792;DHT22;379;49.022;12.148;2023-05-15T00:24:00;9.70;99.90
792;DHT22;379;49.022;12.148;2023-05-15T00:26:26;9.70;99.90
792;DHT22;379;49.022;12.148;2023-05-15T00:28:55;9.70;99.90
792;DHT22;379;49.022;12.148;2023-05-15T00:31:21;9.70;99.90
792;DHT22;379;49.022;12.148;2023-05-15T00:33:48;9.70;99.90
792;DHT22;379;49.022;12.148;2023-05-15T00:36:15;9.70;99.90
792;DHT22;379;49.022;12.148;2023-05-15T00:38:42;9.70;99.90
792;DHT22;379;49.022;12.148;2023-05-15T00:41:09;9.70;99.90
792;DHT22;379;49.022;12.148;2023-05-15T00:43:38;9.70;99.90
792;DHT22;379;49.022;12.148;2023-05-15T00:46:06;9.70;99.90
792;DHT22;379;49.022;12.148;2023-05-15T00:48:33;9.70;99.90
792;DHT22;379;49.022;12.148;2023-05-15T00:51:00;9.70;99.90
792;DHT22;379;49.022;12.148;2023-05-15T00:53:27;9.70;99.90
792;DHT22;379;49.022;12.148;2023-05-15T00:55:56;9.80;99.90
792;DHT22;379;49.022;12.148;2023-05-15T00:58:23;9.80;99.90
792;DHT22;379;49.022;12.148;2023-05-15T01:00:52;9.80;99.90
792;DHT22;379;49.022;12.148;2023-05-15T01:03:20;9.90;99.90
792;DHT22;379;49.022;12.148;2023-05-15T01:05:47;9.80;99.90
792;DHT22;379;49.022;12.148;2023-05-15T01:08:18;9.80;99.90
792;DHT22;379;49.022;12.148;2023-05-15T01:10:47;9.90;99.90
792;DHT22;379;49.022;12.148;2023-05-15T01:13:14;9.90;99.90
792;DHT22;379;49.022;12.148;2023-05-15T01:15:42;9.90;99.90
792;DHT22;379;49.022;12.148;2023-05-15T01:18:09;9.90;99.90
792;DHT22;379;49.022;12.148;2023-05-15T01:20:46;9.90;99.90
792;DHT22;379;49.022;12.148;2023-05-15T01:23:21;9.90;99.90
792;DHT22;379;49.022;12.148;2023-05-15T01:28:59;9.90;99.90
792;DHT22;379;49.022;12.148;2023-05-15T01:31:28;9.90;99.90
792;DHT22;379;49.022;12.148;2023-05-15T01:34:01;9.90;99.90
792;DHT22;379;49.022;12.148;2023-05-15T01:36:32;9.80;99.90
792;DHT22;379;49.022;12.148;2023-05-15T01:39:02;9.90;99.90
792;DHT22;379;49.022;12.148;2023-05-15T01:41:33;9.90;99.90
792;DHT22;379;49.022;12.148;2023-05-15T01:44:06;9.80;99.90
792;DHT22;379;49.022;12.148;2023-05-15T01:46:34;9.80;99.90
792;DHT22;379;49.022;12.148;2023-05-15T01:49:03;9.70;99.90
792;DHT22;379;49.022;12.148;2023-05-15T01:51:32;9.70;99.90
792;DHT22;379;49.022;12.148;2023-05-15T01:53:59;9.70;99.90
792;DHT22;379;49.022;12.148;2023-05-15T01:56:28;9.60;99.90
792;DHT22;379;49.022;12.148;2023-05-15T01:58:56;9.60;99.90
792;DHT22;379;49.022;12.148;2023-05-15T02:01:27;9.60;99.90
792;DHT22;379;49.022;12.148;2023-05-15T02:03:54;9.60;99.90
792;DHT22;379;49.022;12.148;2023-05-15T02:06:21;9.60;99.90
792;DHT22;379;49.022;12.148;2023-05-15T02:08:50;9.60;99.90
792;DHT22;379;49.022;12.148;2023-05-15T02:11:17;9.60;99.90
792;DHT22;379;49.022;12.148;2023-05-15T02:13:45;9.60;99.90
792;DHT22;379;49.022;12.148;2023-05-15T02:16:12;9.60;99.90
792;DHT22;379;49.022;12.148;2023-05-15T02:18:40;9.50;99.90
792;DHT22;379;49.022;12.148;2023-05-15T02:21:07;9.50;99.90
792;DHT22;379;49.022;12.148;2023-05-15T02:23:34;9.40;99.90
792;DHT22;379;49.022;12.148;2023-05-15T02:26:15;9.40;99.90
792;DHT22;379;49.022;12.148;2023-05-15T02:28:49;9.40;99.90
792;DHT22;379;49.022;12.148;2023-05-15T02:31:24;9.40;99.90
792;DHT22;379;49.022;12.148;2023-05-15T02:34:01;9.30;99.90
792;DHT22;379;49.022;12.148;2023-05-15T02:36:32;9.30;99.90
792;DHT22;379;49.022;12.148;2023-05-15T02:38:59;9.30;99.90
792;DHT22;379;49.022;12.148;2023-05-15T02:41:27;9.20;99.90
792;DHT22;379;49.022;12.148;2023-05-15T02:43:55;9.20;99.90
792;DHT22;379;49.022;12.148;2023-05-15T02:46:23;9.20;99.90
792;DHT22;379;49.022;12.148;2023-05-15T02:48:51;9.10;99.90
792;DHT22;379;49.022;12.148;2023-05-15T02:51:19;9.10;99.90
792;DHT22;379;49.022;12.148;2023-05-15T02:53:46;9.10;99.90
792;DHT22;379;49.022;12.148;2023-05-15T02:56:14;9.00;99.90
792;DHT22;379;49.022;12.148;2023-05-15T02:58:41;9.00;99.90
792;DHT22;379;49.022;12.148;2023-05-15T03:01:08;9.00;99.90
792;DHT22;379;49.022;12.148;2023-05-15T03:03:34;9.10;99.90
792;DHT22;379;49.022;12.148;2023-05-15T03:06:01;9.10;99.90
792;DHT22;379;49.022;12.148;2023-05-15T03:08:29;9.10;99.90
792;DHT22;379;49.022;12.148;2023-05-15T03:10:56;9.00;99.90
792;DHT22;379;49.022;12.148;2023-05-15T03:13:22;9.00;99.90
792;DHT22;379;49.022;12.148;2023-05-15T03:15:49;9.10;99.90
792;DHT22;379;49.022;12.148;2023-05-15T03:18:17;9.10;99.90
792;DHT22;379;49.022;12.148;2023-05-15T03:20:44;9.10;99.90
792;DHT22;379;49.022;12.148;2023-05-15T03:23:10;9.10;99.90
792;DHT22;379;49.022;12.148;2023-05-15T03:25:38;9.10;99.90
792;DHT22;379;49.022;12.148;2023-05-15T03:28:05;9.10;99.90
792;DHT22;379;49.022;12.148;2023-05-15T03:30:32;9.10;99.90
792;DHT22;379;49.022;12.148;2023-05-15T03:32:58;9.10;99.90
792;DHT22;379;49.022;12.148;2023-05-15T03:35:28;9.10;99.90
792;DHT22;379;49.022;12.148;2023-05-15T03:37:55;9.10;99.90
792;DHT22;379;49.022;12.148;2023-05-15T03:40:21;9.10;99.90
792;DHT22;379;49.022;12.148;2023-05-15T03:42:50;9.10;99.90
792;DHT22;379;49.022;12.148;2023-05-15T03:45:17;9.10;99.90
792;DHT22;379;49.022;12.148;2023-05-15T03:47:44;9.10;99.90
792;DHT22;379;49.022;12.148;2023-05-15T03:50:11;9.10;99.90
792;DHT22;379;49.022;12.148;2023-05-15T03:52:38;9.10;99.90
792;DHT22;379;49.022;12.148;2023-05-15T03:55:05;9.10;99.90
792;DHT22;379;49.022;12.148;2023-05-15T03:57:32;9.10;99.90
792;DHT22;379;49.022;12.148;2023-05-15T04:00:01;9.10;99.90
792;DHT22;379;49.022;12.148;2023-05-15T04:02:34;9.20;99.90
792;DHT22;379;49.022;12.148;2023-05-15T04:05:01;9.20;99.90
792;DHT22;379;49.022;12.148;2023-05-15T04:07:27;9.20;99.90
792;DHT22;379;49.022;12.148;2023-05-15T04:09:54;9.20;99.90
792;DHT22;379;49.022;12.148;2023-05-15T04:12:21;9.20;99.90
792;DHT22;379;49.022;12.148;2023-05-15T04:14:48;9.20;99.90
792;DHT22;379;49.022;12.148;2023-05-15T04:17:16;9.20;99.90
792;DHT22;379;49.022;12.148;2023-05-15T04:19:42;9.30;99.90
792;DHT22;379;49.022;12.148;2023-05-15T04:22:10;9.30;99.90
792;DHT22;379;49.022;12.148;2023-05-15T04:24:37;9.30;99.90
792;DHT22;379;49.022;12.148;2023-05-15T04:27:04;9.40;99.90
792;DHT22;379;49.022;12.148;2023-05-15T04:29:31;9.30;99.90
792;DHT22;379;49.022;12.148;2023-05-15T04:31:58;9.30;99.90
792;DHT22;379;49.022;12.148;2023-05-15T04:34:26;9.30;99.90
792;DHT22;379;49.022;12.148;2023-05-15T04:36:53;9.30;99.90
792;DHT22;379;49.022;12.148;2023-05-15T04:39:20;9.30;99.90
792;DHT22;379;49.022;12.148;2023-05-15T04:41:47;9.30;99.90
792;DHT22;379;49.022;12.148;2023-05-15T04:44:14;9.30;99.90
792;DHT22;379;49.022;12.148;2023-05-15T04:46:41;9.40;99.90
792;DHT22;379;49.022;12.148;2023-05-15T04:49:07;9.40;99.90
792;DHT22;379;49.022;12.148;2023-05-15T04:51:36;9.50;99.90
792;DHT22;379;49.022;12.148;2023-05-15T04:54:03;9.50;99.90
792;DHT22;379;49.022;12.148;2023-05-15T04:56:30;9.50;99.90
792;DHT22;379;49.022;12.148;2023-05-15T04:58:57;9.60;99.90
792;DHT22;379;49.022;12.148;2023-05-15T05:01:24;9.60;99.90
792;DHT22;379;49.022;12.148;2023-05-15T05:03:50;9.60;99.90
792;DHT22;379;49.022;12.148;2023-05-15T05:06:17;9.70;99.90
792;DHT22;379;49.022;12.148;2023-05-15T05:08:49;9.60;99.90
792;DHT22;379;49.022;12.148;2023-05-15T05:11:16;9.70;99.90
792;DHT22;379;49.022;12.148;2023-05-15T05:13:43;9.70;99.90
792;DHT22;379;49.022;12.148;2023-05-15T05:16:10;9.70;99.90
792;DHT22;379;49.022;12.148;2023-05-15T05:18:37;9.80;99.90
792;DHT22;379;49.022;12.148;2023-05-15T05:21:03;9.80;99.90
792;DHT22;379;49.022;12.148;2023-05-15T05:23:31;9.90;99.90
792;DHT22;379;49.022;12.148;2023-05-15T05:25:59;9.90;99.90
792;DHT22;379;49.022;12.148;2023-05-15T05:28:26;10.00;99.90
792;DHT22;379;49.022;12.148;2023-05-15T05:30:53;10.00;99.90
792;DHT22;379;49.022;12.148;2023-05-15T05:33:20;10.10;99.90
792;DHT22;379;49.022;12.148;2023-05-15T05:35:46;10.00;99.90
792;DHT22;379;49.022;12.148;2023-05-15T05:38:13;10.00;99.90
792;DHT22;379;49.022;12.148;2023-05-15T05:40:40;10.00;99.90
792;DHT22;379;49.022;12.148;2023-05-15T05:43:08;10.00;99.90
792;DHT22;379;49.022;12.148;2023-05-15T05:45:35;10.00;99.90
792;DHT22;379;49.022;12.148;2023-05-15T05:48:01;10.20;99.90
792;DHT22;379;49.022;12.148;2023-05-15T05:50:28;10.30;99.90
792;DHT22;379;49.022;12.148;2023-05-15T05:52:55;10.50;99.90
792;DHT22;379;49.022;12.148;2023-05-15T05:55:22;10.50;99.90
792;DHT22;379;49.022;12.148;2023-05-15T05:57:48;10.50;99.90
792;DHT22;379;49.022;12.148;2023-05-15T06:00:18;10.50;99.90
792;DHT22;379;49.022;12.148;2023-05-15T06:02:45;10.60;99.90
792;DHT22;379;49.022;12.148;2023-05-15T06:05:12;10.70;99.90
792;DHT22;379;49.022;12.148;2023-05-15T06:07:39;10.80;99.90
792;DHT22;379;49.022;12.148;2023-05-15T06:10:06;10.90;99.90
792;DHT22;379;49.022;12.148;2023-05-15T06:12:34;11.10;99.90
792;DHT22;379;49.022;12.148;2023-05-15T06:15:01;11.30;99.90
792;DHT22;379;49.022;12.148;2023-05-15T06:17:29;11.60;99.90
792;DHT22;379;49.022;12.148;2023-05-15T06:19:56;11.80;99.90
792;DHT22;379;49.022;12.148;2023-05-15T06:22:22;12.00;99.90
792;DHT22;379;49.022;12.148;2023-05-15T06:24:49;12.20;99.90
792;DHT22;379;49.022;12.148;2023-05-15T06:27:16;12.40;99.90
792;DHT22;379;49.022;12.148;2023-05-15T06:29:43;12.70;99.90
792;DHT22;379;49.022;12.148;2023-05-15T06:32:09;12.90;99.90
792;DHT22;379;49.022;12.148;2023-05-15T06:34:37;13.30;99.90
792;DHT22;379;49.022;12.148;2023-05-15T06:37:04;13.60;99.90
792;DHT22;379;49.022;12.148;2023-05-15T06:39:32;13.90;99.90
792;DHT22;379;49.022;12.148;2023-05-15T06:41:58;14.20;99.90
792;DHT22;379;49.022;12.148;2023-05-15T06:44:26;14.40;99.90
792;DHT22;379;49.022;12.148;2023-05-15T06:46:52;14.70;99.90
792;DHT22;379;49.022;12.148;2023-05-15T06:49:19;15.20;99.90
792;DHT22;379;49.022;12.148;2023-05-15T06:51:47;15.70;99.90
792;DHT22;379;49.022;12.148;2023-05-15T06:54:14;16.10;99.90
792;DHT22;379;49.022;12.148;2023-05-15T06:56:41;16.40;99.90
792;DHT22;379;49.022;12.148;2023-05-15T06:59:08;16.50;99.90
792;DHT22;379;49.022;12.148;2023-05-15T07:01:35;16.60;99.90
792;DHT22;379;49.022;12.148;2023-05-15T07:04:02;16.70;99.90
792;DHT22;379;49.022;12.148;2023-05-15T07:06:29;16.80;99.90
792;DHT22;379;49.022;12.148;2023-05-15T07:08:58;16.90;99.90
792;DHT22;379;49.022;12.148;2023-05-15T07:11:25;17.00;99.90
792;DHT22;379;49.022;12.148;2023-05-15T07:13:52;17.10;99.90
792;DHT22;379;49.022;12.148;2023-05-15T07:16:19;17.20;99.90
792;DHT22;379;49.022;12.148;2023-05-15T07:18:46;17.50;99.90
792;DHT22;379;49.022;12.148;2023-05-15T07:21:12;17.50;99.30
792;DHT22;379;49.022;12.148;2023-05-15T07:23:39;17.70;99.90
792;DHT22;379;49.022;12.148;2023-05-15T07:26:07;18.10;99.90
792;DHT22;379;49.022;12.148;2023-05-15T07:28:34;18.20;98.40
792;DHT22;379;49.022;12.148;2023-05-15T07:31:01;18.30;97.20
792;DHT22;379;49.022;12.148;2023-05-15T07:33:27;18.40;96.10
792;DHT22;379;49.022;12.148;2023-05-15T07:35:54;18.50;94.20
792;DHT22;379;49.022;12.148;2023-05-15T07:38:21;18.50;94.30
792;DHT22;379;49.022;12.148;2023-05-15T07:40:48;18.60;91.90
792;DHT22;379;49.022;12.148;2023-05-15T07:43:16;18.70;92.10
792;DHT22;379;49.022;12.148;2023-05-15T07:45:43;18.80;90.60
792;DHT22;379;49.022;12.148;2023-05-15T07:48:13;18.80;92.00
792;DHT22;379;49.022;12.148;2023-05-15T07:50:41;19.10;92.00
792;DHT22;379;49.022;12.148;2023-05-15T07:53:07;19.30;91.90
792;DHT22;379;49.022;12.148;2023-05-15T07:55:34;19.30;89.80
792;DHT22;379;49.022;12.148;2023-05-15T07:58:01;19.10;91.60
792;DHT22;379;49.022;12.148;2023-05-15T08:00:29;19.30;92.20
792;DHT22;379;49.022;12.148;2023-05-15T08:02:57;19.50;90.90
792;DHT22;379;49.022;12.148;2023-05-15T08:05:24;19.60;89.50
792;DHT22;379;49.022;12.148;2023-05-15T08:07:50;19.40;86.30
792;DHT22;379;49.022;12.148;2023-05-15T08:10:17;19.60;87.00
792;DHT22;379;49.022;12.148;2023-05-15T08:12:44;20.00;86.60
792;DHT22;379;49.022;12.148;2023-05-15T08:15:11;20.60;84.70
792;DHT22;379;49.022;12.148;2023-05-15T08:17:40;21.10;81.30
792;DHT22;379;49.022;12.148;2023-05-15T08:20:07;21.40;80.00
792;DHT22;379;49.022;12.148;2023-05-15T08:22:35;21.70;78.10
792;DHT22;379;49.022;12.148;2023-05-15T08:25:01;21.60;73.60
792;DHT22;379;49.022;12.148;2023-05-15T08:27:30;21.30;75.00
792;DHT22;379;49.022;12.148;2023-05-15T08:29:56;20.80;70.50
792;DHT22;379;49.022;12.148;2023-05-15T08:32:23;20.20;70.60
792;DHT22;379;49.022;12.148;2023-05-15T08:34:52;19.90;74.40
792;DHT22;379;49.022;12.148;2023-05-15T08:37:19;19.90;76.90
792;DHT22;379;49.022;12.148;2023-05-15T08:39:45;20.10;77.70
792;DHT22;379;49.022;12.148;2023-05-15T08:42:17;20.40;78.20
792;DHT22;379;49.022;12.148;2023-05-15T08:44:45;20.70;76.80
792;DHT22;379;49.022;12.148;2023-05-15T08:47:13;21.00;76.10
792;DHT22;379;49.022;12.148;2023-05-15T08:49:46;21.00;74.00
792;DHT22;379;49.022;12.148;2023-05-15T08:52:18;21.30;73.10
792;DHT22;379;49.022;12.148;2023-05-15T08:54:45;21.20;70.30
792;DHT22;379;49.022;12.148;2023-05-15T08:57:13;21.20;71.30
792;DHT22;379;49.022;12.148;2023-05-15T08:59:41;21.20;70.30
792;DHT22;379;49.022;12.148;2023-05-15T09:02:08;21.30;70.80
792;DHT22;379;49.022;12.148;2023-05-15T09:04:35;21.40;70.60
792;DHT22;379;49.022;12.148;2023-05-15T09:07:02;21.70;70.30
792;DHT22;379;49.022;12.148;2023-05-15T09:09:31;21.80;68.90
792;DHT22;379;49.022;12.148;2023-05-15T09:11:59;22.00;68.10
792;DHT22;379;49.022;12.148;2023-05-15T09:14:26;22.30;68.00
792;DHT22;379;49.022;12.148;2023-05-15T09:16:53;22.60;67.20
792;DHT22;379;49.022;12.148;2023-05-15T09:19:20;22.70;65.30
792;DHT22;379;49.022;12.148;2023-05-15T09:21:47;22.60;62.60
792;DHT22;379;49.022;12.148;2023-05-15T09:24:15;22.20;63.00
792;DHT22;379;49.022;12.148;2023-05-15T09:26:45;21.80;64.20
792;DHT22;379;49.022;12.148;2023-05-15T09:29:15;21.30;64.90
792;DHT22;379;49.022;12.148;2023-05-15T09:31:42;20.90;66.40
792;DHT22;379;49.022;12.148;2023-05-15T09:34:09;20.60;67.40
792;DHT22;379;49.022;12.148;2023-05-15T09:36:41;20.50;67.60
792;DHT22;379;49.022;12.148;2023-05-15T09:39:08;20.40;68.30
792;DHT22;379;49.022;12.148;2023-05-15T09:41:40;20.10;66.00
792;DHT22;379;49.022;12.148;2023-05-15T09:44:17;19.90;67.40
792;DHT22;379;49.022;12.148;2023-05-15T09:46:44;19.90;69.40
792;DHT22;379;49.022;12.148;2023-05-15T09:49:11;19.90;68.90
792;DHT22;379;49.022;12.148;2023-05-15T09:51:38;20.00;69.20
792;DHT22;379;49.022;12.148;2023-05-15T09:54:05;20.10;69.40
792;DHT22;379;49.022;12.148;2023-05-15T09:56:32;20.30;69.10
792;DHT22;379;49.022;12.148;2023-05-15T09:58:58;20.40;69.20
792;DHT22;379;49.022;12.148;2023-05-15T10:01:27;20.60;68.60
792;DHT22;379;49.022;12.148;2023-05-15T10:03:57;20.60;68.30
792;DHT22;379;49.022;12.148;2023-05-15T10:06:24;20.70;68.10
792;DHT22;379;49.022;12.148;2023-05-15T10:08:51;20.80;67.60
792;DHT22;379;49.022;12.148;2023-05-15T10:11:19;21.00;63.70
792;DHT22;379;49.022;12.148;2023-05-15T10:13:47;21.00;65.70
792;DHT22;379;49.022;12.148;2023-05-15T10:16:14;21.00;65.60
792;DHT22;379;49.022;12.148;2023-05-15T10:18:43;21.10;65.80
792;DHT22;379;49.022;12.148;2023-05-15T10:21:11;21.20;66.20
792;DHT22;379;49.022;12.148;2023-05-15T10:23:40;21.40;64.50
792;DHT22;379;49.022;12.148;2023-05-15T10:26:13;21.30;64.20
792;DHT22;379;49.022;12.148;2023-05-15T10:28:43;21.30;64.10
792;DHT22;379;49.022;12.148;2023-05-15T10:31:11;21.20;63.30
792;DHT22;379;49.022;12.148;2023-05-15T10:33:39;20.90;63.30
792;DHT22;379;49.022;12.148;2023-05-15T10:36:08;20.50;64.00
792;DHT22;379;49.022;12.148;2023-05-15T10:38:35;20.10;65.20
792;DHT22;379;49.022;12.148;2023-05-15T10:41:03;19.70;67.10
792;DHT22;379;49.022;12.148;2023-05-15T10:43:31;19.50;68.60
792;DHT22;379;49.022;12.148;2023-05-15T10:45:59;19.20;70.00
792;DHT22;379;49.022;12.148;2023-05-15T10:48:26;18.90;72.60
792;DHT22;379;49.022;12.148;2023-05-15T10:50:53;18.70;73.70
792;DHT22;379;49.022;12.148;2023-05-15T10:53:21;18.60;75.30
792;DHT22;379;49.022;12.148;2023-05-15T10:55:48;18.20;77.00
792;DHT22;379;49.022;12.148;2023-05-15T10:58:15;17.90;79.40
792;DHT22;379;49.022;12.148;2023-05-15T11:00:43;17.60;81.60
792;DHT22;379;49.022;12.148;2023-05-15T11:03:13;17.50;84.50
792;DHT22;379;49.022;12.148;2023-05-15T11:06:06;17.50;86.30
792;DHT22;379;49.022;12.148;2023-05-15T11:08:37;17.60;86.50
792;DHT22;379;49.022;12.148;2023-05-15T11:11:03;17.80;87.20
792;DHT22;379;49.022;12.148;2023-05-15T11:16:57;18.20;86.20
792;DHT22;379;49.022;12.148;2023-05-15T11:19:30;18.30;82.70
792;DHT22;379;49.022;12.148;2023-05-15T11:21:57;18.40;83.90
792;DHT22;379;49.022;12.148;2023-05-15T11:24:31;18.60;80.70
792;DHT22;379;49.022;12.148;2023-05-15T11:27:01;18.70;78.80
792;DHT22;379;49.022;12.148;2023-05-15T11:29:29;18.70;78.70
792;DHT22;379;49.022;12.148;2023-05-15T11:31:56;18.80;80.40
792;DHT22;379;49.022;12.148;2023-05-15T11:34:29;18.90;81.10
792;DHT22;379;49.022;12.148;2023-05-15T11:36:57;18.90;82.00
792;DHT22;379;49.022;12.148;2023-05-15T11:39:25;19.00;83.40
792;DHT22;379;49.022;12.148;2023-05-15T11:41:53;19.10;81.80
792;DHT22;379;49.022;12.148;2023-05-15T11:44:21;19.20;82.20
792;DHT22;379;49.022;12.148;2023-05-15T11:46:48;19.30;81.00
792;DHT22;379;49.022;12.148;2023-05-15T11:49:17;19.40;78.50
792;DHT22;379;49.022;12.148;2023-05-15T11:51:46;19.40;77.90
792;DHT22;379;49.022;12.148;2023-05-15T11:54:13;19.40;72.60
792;DHT22;379;49.022;12.148;2023-05-15T11:56:42;19.30;72.20
792;DHT22;379;49.022;12.148;2023-05-15T11:59:11;19.20;72.50
792;DHT22;379;49.022;12.148;2023-05-15T12:01:39;18.90;73.40
792;DHT22;379;49.022;12.148;2023-05-15T12:04:12;18.80;75.70
792;DHT22;379;49.022;12.148;2023-05-15T12:06:40;18.90;76.10
792;DHT22;379;49.022;12.148;2023-05-15T12:09:12;18.90;76.80
792;DHT22;379;49.022;12.148;2023-05-15T12:11:40;18.90;77.70
792;DHT22;379;49.022;12.148;2023-05-15T12:14:11;19.10;78.80
792;DHT22;379;49.022;12.148;2023-05-15T12:16:38;19.20;78.70
792;DHT22;379;49.022;12.148;2023-05-15T12:19:04;19.40;77.00
792;DHT22;379;49.022;12.148;2023-05-15T12:21:31;19.50;76.10
792;DHT22;379;49.022;12.148;2023-05-15T12:23:58;19.50;76.40
792;DHT22;379;49.022;12.148;2023-05-15T12:26:25;19.40;75.90
792;DHT22;379;49.022;12.148;2023-05-15T12:28:53;19.30;75.70
792;DHT22;379;49.022;12.148;2023-05-15T12:31:22;19.20;75.80
792;DHT22;379;49.022;12.148;2023-05-15T12:33:49;19.10;76.70
792;DHT22;379;49.022;12.148;2023-05-15T12:36:19;19.10;77.40
792;DHT22;379;49.022;12.148;2023-05-15T12:38:46;19.00;77.70
792;DHT22;379;49.022;12.148;2023-05-15T12:41:13;18.90;77.80
792;DHT22;379;49.022;12.148;2023-05-15T12:43:40;18.90;78.60
792;DHT22;379;49.022;12.148;2023-05-15T12:46:07;18.70;78.90
792;DHT22;379;49.022;12.148;2023-05-15T12:48:36;18.60;80.20
792;DHT22;379;49.022;12.148;2023-05-15T12:51:04;18.40;79.60
792;DHT22;379;49.022;12.148;2023-05-15T12:53:32;18.10;79.10
792;DHT22;379;49.022;12.148;2023-05-15T12:55:59;17.90;79.30
792;DHT22;379;49.022;12.148;2023-05-15T12:58:27;17.60;79.20
792;DHT22;379;49.022;12.148;2023-05-15T13:00:54;17.50;79.80
792;DHT22;379;49.022;12.148;2023-05-15T13:03:21;17.40;80.20
792;DHT22;379;49.022;12.148;2023-05-15T13:05:51;17.30;79.70
792;DHT22;379;49.022;12.148;2023-05-15T13:08:18;17.30;79.10
792;DHT22;379;49.022;12.148;2023-05-15T13:10:46;17.20;78.90
792;DHT22;379;49.022;12.148;2023-05-15T13:13:13;17.20;79.20
792;DHT22;379;49.022;12.148;2023-05-15T13:15:43;17.40;79.70
792;DHT22;379;49.022;12.148;2023-05-15T13:18:11;17.50;79.80
792;DHT22;379;49.022;12.148;2023-05-15T13:20:40;17.60;79.80
792;DHT22;379;49.022;12.148;2023-05-15T13:23:09;17.80;80.10
792;DHT22;379;49.022;12.148;2023-05-15T13:25:36;18.00;80.70
792;DHT22;379;49.022;12.148;2023-05-15T13:28:04;18.20;81.20
792;DHT22;379;49.022;12.148;2023-05-15T13:30:33;18.40;81.20
792;DHT22;379;49.022;12.148;2023-05-15T13:33:00;18.50;80.70
792;DHT22;379;49.022;12.148;2023-05-15T13:35:27;18.50;81.00
792;DHT22;379;49.022;12.148;2023-05-15T13:37:54;18.50;81.20
792;DHT22;379;49.022;12.148;2023-05-15T13:40:23;18.40;81.20
792;DHT22;379;49.022;12.148;2023-05-15T13:42:50;18.30;81.50
792;DHT22;379;49.022;12.148;2023-05-15T13:45:17;18.30;81.80
792;DHT22;379;49.022;12.148;2023-05-15T13:47:43;18.30;81.40
792;DHT22;379;49.022;12.148;2023-05-15T13:50:11;18.30;81.70
792;DHT22;379;49.022;12.148;2023-05-15T13:52:39;18.30;81.80
792;DHT22;379;49.022;12.148;2023-05-15T13:55:07;18.40;81.70
792;DHT22;379;49.022;12.148;2023-05-15T13:57:36;18.40;81.50
792;DHT22;379;49.022;12.148;2023-05-15T14:00:04;18.30;81.40
792;DHT22;379;49.022;12.148;2023-05-15T14:02:31;18.20;81.10
792;DHT22;379;49.022;12.148;2023-05-15T14:04:58;18.10;80.90
792;DHT22;379;49.022;12.148;2023-05-15T14:07:25;18.00;80.90
792;DHT22;379;49.022;12.148;2023-05-15T14:09:52;17.90;79.80
792;DHT22;379;49.022;12.148;2023-05-15T14:12:18;17.80;79.20
792;DHT22;379;49.022;12.148;2023-05-15T14:14:47;17.80;79.60
792;DHT22;379;49.022;12.148;2023-05-15T14:17:14;17.80;78.70
792;DHT22;379;49.022;12.148;2023-05-15T14:19:41;17.80;78.60
792;DHT22;379;49.022;12.148;2023-05-15T14:22:08;17.80;76.90
792;DHT22;379;49.022;12.148;2023-05-15T14:24:35;17.90;76.40
792;DHT22;379;49.022;12.148;2023-05-15T14:27:02;17.90;76.30
792;DHT22;379;49.022;12.148;2023-05-15T14:29:29;17.90;76.50
792;DHT22;379;49.022;12.148;2023-05-15T14:31:57;18.10;76.80
792;DHT22;379;49.022;12.148;2023-05-15T14:34:24;18.40;76.90
792;DHT22;379;49.022;12.148;2023-05-15T14:36:50;18.70;76.10
792;DHT22;379;49.022;12.148;2023-05-15T14:39:17;19.10;73.70
792;DHT22;379;49.022;12.148;2023-05-15T14:41:44;19.40;72.70
792;DHT22;379;49.022;12.148;2023-05-15T14:44:11;19.80;72.20
792;DHT22;379;49.022;12.148;2023-05-15T14:46:41;20.20;72.10
792;DHT22;379;49.022;12.148;2023-05-15T14:49:09;20.80;71.60
792;DHT22;379;49.022;12.148;2023-05-15T14:51:36;21.40;70.70
792;DHT22;379;49.022;12.148;2023-05-15T14:54:02;21.80;69.20
792;DHT22;379;49.022;12.148;2023-05-15T14:56:30;22.00;68.80
792;DHT22;379;49.022;12.148;2023-05-15T14:58:56;22.20;67.90
792;DHT22;379;49.022;12.148;2023-05-15T15:01:23;22.20;66.90
792;DHT22;379;49.022;12.148;2023-05-15T15:03:50;22.20;65.70
792;DHT22;379;49.022;12.148;2023-05-15T15:06:18;22.00;65.30
792;DHT22;379;49.022;12.148;2023-05-15T15:08:45;21.70;66.00
792;DHT22;379;49.022;12.148;2023-05-15T15:11:12;21.50;65.90
792;DHT22;379;49.022;12.148;2023-05-15T15:13:38;21.40;65.60
792;DHT22;379;49.022;12.148;2023-05-15T15:16:05;21.20;65.00
792;DHT22;379;49.022;12.148;2023-05-15T15:18:32;21.00;65.70
792;DHT22;379;49.022;12.148;2023-05-15T15:20:59;20.90;65.60
792;DHT22;379;49.022;12.148;2023-05-15T15:23:27;20.80;66.00
792;DHT22;379;49.022;12.148;2023-05-15T15:25:54;20.60;66.10
792;DHT22;379;49.022;12.148;2023-05-15T15:28:20;20.40;66.60
792;DHT22;379;49.022;12.148;2023-05-15T15:30:47;20.30;66.80
792;DHT22;379;49.022;12.148;2023-05-15T15:33:14;20.20;67.20
792;DHT22;379;49.022;12.148;2023-05-15T15:35:41;20.10;67.70
792;DHT22;379;49.022;12.148;2023-05-15T15:38:08;20.00;67.40
792;DHT22;379;49.022;12.148;2023-05-15T15:40:37;19.80;66.10
792;DHT22;379;49.022;12.148;2023-05-15T15:43:04;19.70;67.40
792;DHT22;379;49.022;12.148;2023-05-15T15:45:30;19.60;66.80
792;DHT22;379;49.022;12.148;2023-05-15T15:47:57;19.40;63.50
792;DHT22;379;49.022;12.148;2023-05-15T15:50:24;19.20;64.20
792;DHT22;379;49.022;12.148;2023-05-15T15:52:51;19.00;65.80
792;DHT22;379;49.022;12.148;2023-05-15T15:55:17;19.00;66.50
792;DHT22;379;49.022;12.148;2023-05-15T15:57:45;19.00;66.80
792;DHT22;379;49.022;12.148;2023-05-15T16:00:13;19.10;66.40
792;DHT22;379;49.022;12.148;2023-05-15T16:02:40;19.20;66.30
792;DHT22;379;49.022;12.148;2023-05-15T16:05:07;19.30;66.10
792;DHT22;379;49.022;12.148;2023-05-15T16:07:34;19.50;66.50
792;DHT22;379;49.022;12.148;2023-05-15T16:10:01;19.60;67.20
792;DHT22;379;49.022;12.148;2023-05-15T16:12:28;19.60;67.40
792;DHT22;379;49.022;12.148;2023-05-15T16:14:56;19.70;67.90
792;DHT22;379;49.022;12.148;2023-05-15T16:17:22;19.70;68.10
792;DHT22;379;49.022;12.148;2023-05-15T16:19:49;19.60;66.30
792;DHT22;379;49.022;12.148;2023-05-15T16:22:16;19.60;65.80
792;DHT22;379;49.022;12.148;2023-05-15T16:24:43;19.50;65.50
792;DHT22;379;49.022;12.148;2023-05-15T16:27:09;19.50;65.70
792;DHT22;379;49.022;12.148;2023-05-15T16:29:36;19.50;65.60
792;DHT22;379;49.022;12.148;2023-05-15T16:32:05;19.50;65.60
792;DHT22;379;49.022;12.148;2023-05-15T16:34:32;19.60;65.90